createdAt,value
2022-11-29T00:01:35.408Z,7.69
2022-11-29T00:04:02.784Z,7.71
2022-11-29T00:06:32.399Z,7.69
2022-11-29T00:09:01.121Z,7.64
2022-11-29T00:11:49.520Z,7.61
2022-11-29T00:14:18.515Z,7.64
2022-11-29T00:16:45.518Z,7.60
2022-11-29T00:19:13.715Z,7.64
2022-11-29T00:21:40.365Z,7.60
2022-11-29T00:24:07.617Z,7.56
2022-11-29T00:26:34.301Z,7.63
2022-11-29T00:29:00.966Z,7.64
2022-11-29T00:31:30.569Z,7.64
2022-11-29T00:34:02.298Z,7.59
2022-11-29T00:36:29.921Z,7.61
2022-11-29T00:38:56.548Z,7.63
2022-11-29T00:41:23.424Z,7.49
2022-11-29T00:43:50.091Z,7.51
2022-11-29T00:46:16.803Z,7.44
2022-11-29T00:48:43.487Z,7.48
2022-11-29T00:51:10.388Z,7.49
2022-11-29T00:53:37.763Z,7.50
2022-11-29T00:56:05.803Z,7.61
2022-11-29T00:58:33.091Z,7.53
2022-11-29T01:00:59.890Z,7.50
2022-11-29T01:03:26.815Z,7.51
2022-11-29T01:05:53.696Z,7.60
2022-11-29T01:08:20.477Z,7.59
2022-11-29T01:10:47.289Z,7.61
2022-11-29T01:13:14.166Z,7.65
2022-11-29T01:15:41.706Z,7.67
2022-11-29T01:18:08.423Z,7.60
2022-11-29T01:20:35.170Z,7.44
2022-11-29T01:25:38.845Z,7.67
2022-11-29T01:28:05.474Z,7.59
2022-11-29T01:30:32.179Z,7.68
2022-11-29T01:32:58.842Z,7.73
2022-11-29T01:35:25.430Z,7.83
2022-11-29T01:37:52.090Z,7.75
2022-11-29T01:40:18.671Z,7.68
2022-11-29T01:42:45.301Z,7.71
2022-11-29T01:45:22.366Z,7.70
2022-11-29T01:47:51.418Z,7.69
2022-11-29T01:50:18.349Z,7.70
2022-11-29T01:52:46.178Z,7.66
2022-11-29T01:55:13.639Z,7.64
2022-11-29T01:57:41.943Z,7.70
2022-11-29T02:00:15.135Z,7.62
2022-11-29T02:02:49.405Z,7.71
2022-11-29T02:05:18.769Z,7.71
2022-11-29T02:07:48.470Z,7.78
2022-11-29T02:10:16.659Z,7.75
2022-11-29T02:12:58.985Z,7.75
2022-11-29T02:15:53.232Z,7.66
2022-11-29T02:18:32.433Z,7.71
2022-11-29T02:34:20.529Z,7.65
2022-11-29T02:37:15.148Z,7.66
2022-11-29T02:40:00.505Z,7.69
2022-11-29T02:43:15.106Z,7.71
2022-11-29T02:46:23.782Z,7.57
2022-11-29T02:49:03.119Z,7.73
2022-11-29T02:51:48.049Z,7.72
2022-11-29T02:54:37.489Z,7.75
2022-11-29T02:57:21.997Z,7.64
2022-11-29T03:00:02.067Z,7.66
2022-11-29T03:03:10.440Z,7.51
2022-11-29T03:05:54.289Z,7.72
2022-11-29T03:08:35.671Z,7.79
2022-11-29T03:11:29.960Z,7.68
2022-11-29T03:14:14.863Z,7.78
2022-11-29T03:17:05.146Z,7.78
2022-11-29T03:19:51.619Z,7.81
2022-11-29T03:22:39.634Z,7.87
2022-11-29T03:25:37.019Z,7.91
2022-11-29T03:28:12.712Z,7.87
2022-11-29T03:30:43.081Z,7.88
2022-11-29T03:33:24.433Z,7.83
2022-11-29T03:36:01.936Z,7.87
2022-11-29T03:38:44.079Z,7.73
2022-11-29T03:41:20.541Z,7.82
2022-11-29T03:43:56.771Z,7.94
2022-11-29T03:46:44.379Z,7.94
2022-11-29T03:49:22.153Z,7.89
2022-11-29T03:57:31.801Z,7.83
2022-11-29T04:00:08.729Z,7.85
2022-11-29T04:02:50.138Z,7.85
2022-11-29T04:05:46.263Z,7.78
2022-11-29T04:08:45.420Z,7.84
2022-11-29T04:11:33.140Z,7.77
2022-11-29T04:14:14.597Z,7.89
2022-11-29T04:17:08.850Z,7.90
2022-11-29T04:20:23.764Z,7.89
2022-11-29T04:23:15.378Z,7.92
2022-11-29T04:26:12.928Z,7.83
2022-11-29T04:29:00.916Z,7.89
2022-11-29T04:31:33.388Z,7.95
2022-11-29T04:34:29.828Z,8.00
2022-11-29T04:37:23.148Z,7.94
2022-11-29T04:40:13.550Z,7.93
2022-11-29T04:45:16.952Z,7.95
2022-11-29T04:48:08.223Z,7.95
2022-11-29T04:50:49.923Z,8.03
2022-11-29T04:53:16.494Z,8.04
2022-11-29T04:55:58.123Z,8.03
2022-11-29T04:58:44.229Z,8.09
2022-11-29T05:01:29.138Z,8.08
2022-11-29T05:04:07.616Z,8.07
2022-11-29T05:06:54.662Z,8.00
2022-11-29T05:09:59.735Z,8.04
2022-11-29T05:12:44.595Z,8.03
2022-11-29T05:15:47.816Z,7.99
2022-11-29T05:18:17.337Z,7.94
2022-11-29T05:21:02.216Z,7.99
2022-11-29T05:23:47.466Z,7.91
2022-11-29T05:26:16.746Z,7.92
2022-11-29T05:28:43.323Z,7.92
2022-11-29T05:31:28.838Z,7.97
2022-11-29T05:34:13.830Z,7.91
2022-11-29T05:36:52.191Z,7.87
2022-11-29T05:39:40.091Z,7.83
2022-11-29T05:42:16.251Z,7.77
2022-11-29T05:44:52.954Z,7.79
2022-11-29T05:47:31.554Z,7.78
2022-11-29T05:50:21.859Z,7.84
2022-11-29T05:53:11.724Z,7.75
2022-11-29T05:55:53.240Z,7.79
2022-11-29T05:58:44.545Z,7.80
2022-11-29T06:04:24.930Z,7.95
2022-11-29T06:07:22.754Z,7.94
2022-11-29T06:10:01.478Z,7.94
2022-11-29T06:12:31.476Z,7.93
2022-11-29T06:17:59.541Z,7.91
2022-11-29T06:21:03.470Z,8.05
2022-11-29T06:23:44.837Z,7.96
2022-11-29T06:26:47.519Z,7.95
2022-11-29T06:29:17.907Z,7.96
2022-11-29T06:31:48.590Z,7.90
2022-11-29T06:34:33.983Z,7.93
2022-11-29T06:37:12.116Z,8.05
2022-11-29T06:42:12.820Z,7.97
2022-11-29T06:44:39.814Z,7.97
2022-11-29T06:47:11.746Z,7.83
2022-11-29T06:49:51.965Z,7.95
2022-11-29T06:52:28.679Z,7.96
2022-11-29T06:55:16.525Z,7.87
2022-11-29T06:58:01.970Z,8.00
2022-11-29T07:00:42.923Z,7.86
2022-11-29T07:03:38.875Z,7.87
2022-11-29T07:06:15.522Z,7.88
2022-11-29T07:08:42.947Z,7.86
2022-11-29T07:11:14.062Z,7.91
2022-11-29T07:13:41.078Z,7.83
2022-11-29T07:16:30.476Z,7.86
2022-11-29T07:19:26.222Z,7.85
2022-11-29T07:22:30.081Z,7.88
2022-11-29T07:25:17.002Z,7.85
2022-11-29T07:27:56.741Z,7.86
2022-11-29T07:30:37.629Z,7.94
2022-11-29T07:33:42.225Z,7.89
2022-11-29T07:36:11.691Z,7.94
2022-11-29T07:38:56.738Z,7.88
2022-11-29T07:41:50.408Z,7.83
2022-11-29T07:44:28.528Z,7.93
2022-11-29T07:46:55.254Z,7.86
2022-11-29T07:49:21.960Z,7.88
2022-11-29T07:51:48.948Z,7.84
2022-11-29T07:54:17.986Z,7.89
2022-11-29T07:56:44.750Z,7.86
2022-11-29T08:01:44.114Z,8.10
2022-11-29T08:04:10.853Z,8.21
2022-11-29T08:06:37.924Z,8.15
2022-11-29T08:09:05.198Z,8.07
2022-11-29T08:11:31.828Z,8.15
2022-11-29T08:14:00.022Z,8.15
2022-11-29T08:16:27.460Z,8.11
2022-11-29T08:18:54.241Z,8.13
2022-11-29T08:23:59.056Z,8.19
2022-11-29T08:28:59.135Z,8.21
2022-11-29T08:31:25.855Z,8.04
2022-11-29T08:33:52.521Z,8.01
2022-11-29T08:39:05.969Z,7.97
2022-11-29T08:41:35.562Z,8.07
2022-11-29T08:44:02.829Z,8.06
2022-11-29T08:46:49.549Z,7.97
2022-11-29T08:49:16.359Z,8.11
2022-11-29T08:51:43.028Z,8.09
2022-11-29T08:54:09.860Z,8.14
2022-11-29T08:59:09.223Z,8.11
2022-11-29T09:01:35.867Z,8.17
2022-11-29T09:04:03.243Z,8.17
2022-11-29T09:06:38.018Z,8.11
2022-11-29T09:09:06.948Z,8.14
2022-11-29T09:11:35.110Z,8.15
2022-11-29T09:14:04.954Z,8.18
2022-11-29T09:16:35.030Z,8.19
2022-11-29T09:19:02.390Z,8.28
2022-11-29T09:21:31.770Z,8.21
2022-11-29T09:24:00.800Z,8.17
2022-11-29T09:26:30.176Z,8.22
2022-11-29T09:29:01.415Z,8.19
2022-11-29T09:31:30.095Z,8.39
2022-11-29T09:36:29.911Z,8.33
2022-11-29T09:38:57.759Z,8.38
2022-11-29T09:41:36.324Z,8.34
2022-11-29T09:44:22.152Z,8.36
2022-11-29T09:47:18.122Z,8.39
2022-11-29T09:49:59.995Z,8.39
2022-11-29T09:52:36.801Z,8.46
2022-11-29T09:55:22.409Z,8.31
2022-11-29T09:57:50.112Z,8.27
2022-11-29T10:00:20.279Z,8.35
2022-11-29T10:02:53.678Z,8.28
2022-11-29T10:05:32.803Z,8.30
2022-11-29T10:08:21.097Z,8.37
2022-11-29T10:10:50.706Z,8.33
2022-11-29T10:16:02.026Z,8.42
2022-11-29T10:18:45.479Z,8.30
2022-11-29T10:21:21.142Z,8.34
2022-11-29T10:23:52.739Z,8.37
2022-11-29T10:26:21.106Z,8.31
2022-11-29T10:28:49.501Z,8.40
2022-11-29T10:31:43.061Z,8.33
2022-11-29T10:34:31.189Z,8.29
2022-11-29T10:36:59.863Z,8.27
2022-11-29T10:39:37.345Z,8.38
2022-11-29T10:42:26.115Z,8.35
2022-11-29T10:44:52.900Z,8.43
2022-11-29T10:47:19.642Z,8.40
2022-11-29T10:49:46.350Z,8.43
2022-11-29T10:52:20.183Z,8.39
2022-11-29T10:54:48.585Z,8.38
2022-11-29T10:57:22.157Z,8.40
2022-11-29T11:00:09.986Z,8.36
2022-11-29T11:02:38.162Z,8.38
2022-11-29T11:05:18.716Z,8.32
2022-11-29T11:07:47.586Z,8.31
2022-11-29T11:10:41.572Z,8.34
2022-11-29T11:16:17.610Z,8.31
2022-11-29T11:18:46.020Z,8.34
2022-11-29T11:21:16.120Z,8.34
2022-11-29T11:23:54.007Z,8.28
2022-11-29T11:26:21.373Z,8.43
2022-11-29T11:29:02.858Z,8.44
2022-11-29T11:31:40.733Z,8.38
2022-11-29T11:34:27.714Z,8.35
2022-11-29T11:37:17.753Z,8.39
2022-11-29T11:39:47.762Z,8.39
2022-11-29T11:42:38.423Z,8.35
2022-11-29T11:45:11.042Z,8.39
2022-11-29T11:47:45.549Z,8.37
2022-11-29T11:50:18.227Z,8.33
2022-11-29T11:52:50.732Z,8.42
2022-11-29T11:55:35.770Z,8.49
2022-11-29T11:58:10.380Z,8.46
2022-11-29T12:01:06.659Z,8.49
2022-11-29T12:03:41.196Z,8.38
2022-11-29T12:06:26.143Z,8.42
2022-11-29T12:09:01.231Z,8.46
2022-11-29T12:11:46.159Z,8.45
2022-11-29T12:14:27.212Z,8.55
2022-11-29T12:17:04.670Z,8.53
2022-11-29T12:19:43.439Z,8.55
2022-11-29T12:27:36.631Z,8.42
2022-11-29T12:30:11.729Z,8.48
2022-11-29T12:33:06.058Z,8.56
2022-11-29T12:35:38.832Z,8.50
2022-11-29T12:38:05.456Z,8.57
2022-11-29T12:40:43.860Z,8.49
2022-11-29T12:43:32.248Z,8.52
2022-11-29T12:46:31.508Z,8.54
2022-11-29T12:49:30.469Z,8.50
2022-11-29T12:52:13.556Z,8.51
2022-11-29T12:55:18.778Z,8.43
2022-11-29T12:58:08.283Z,8.40
2022-11-29T13:00:52.428Z,8.41
2022-11-29T13:03:33.956Z,8.52
2022-11-29T13:06:03.522Z,8.54
2022-11-29T13:08:51.685Z,8.55
2022-11-29T13:11:27.739Z,8.54
2022-11-29T13:14:34.830Z,8.53
2022-11-29T13:17:05.173Z,8.45
2022-11-29T13:19:37.571Z,8.51
2022-11-29T13:22:35.986Z,8.53
2022-11-29T13:28:28.897Z,8.42
2022-11-29T13:31:01.721Z,8.45
2022-11-29T13:33:54.597Z,8.50
2022-11-29T13:36:59.785Z,8.45
2022-11-29T13:39:55.662Z,8.36
2022-11-29T13:48:30.499Z,8.35
2022-11-29T13:50:57.840Z,8.34
2022-11-29T13:53:30.794Z,8.31
2022-11-29T13:56:01.539Z,8.38
2022-11-29T13:58:28.176Z,8.28
2022-11-29T14:01:00.352Z,8.29
2022-11-29T14:03:29.494Z,8.31
2022-11-29T14:06:01.890Z,8.30
2022-11-29T14:08:48.055Z,8.35
2022-11-29T14:11:24.732Z,8.24
2022-11-29T14:14:17.289Z,8.24
2022-11-29T14:16:43.843Z,8.25
2022-11-29T14:19:10.458Z,8.19
2022-11-29T14:21:58.641Z,8.17
2022-11-29T14:24:37.216Z,8.16
2022-11-29T14:27:06.798Z,8.08
2022-11-29T14:29:49.239Z,8.26
2022-11-29T14:32:45.988Z,8.17
2022-11-29T14:35:12.998Z,8.06
2022-11-29T14:37:48.243Z,8.00
2022-11-29T14:40:33.726Z,8.02
2022-11-29T14:43:02.273Z,8.01
2022-11-29T14:45:34.564Z,7.97
2022-11-29T14:48:02.939Z,7.94
2022-11-29T14:53:33.178Z,8.01
2022-11-29T14:56:39.741Z,7.88
2022-11-29T14:59:37.091Z,7.94
2022-11-29T15:02:32.697Z,7.92
2022-11-29T15:05:13.480Z,7.92
2022-11-29T15:07:45.773Z,7.93
2022-11-29T15:10:22.559Z,7.85
2022-11-29T15:12:50.124Z,7.81
2022-11-29T15:15:31.532Z,7.85
2022-11-29T15:18:08.843Z,7.81
2022-11-29T15:21:02.046Z,7.82
2022-11-29T15:23:28.713Z,7.84
2022-11-29T15:26:00.545Z,7.76
2022-11-29T15:28:29.747Z,7.80
2022-11-29T15:33:42.029Z,7.73
2022-11-29T15:36:14.960Z,7.67
2022-11-29T15:38:56.137Z,7.75
2022-11-29T15:41:22.723Z,7.78
2022-11-29T15:43:55.988Z,7.67
2022-11-29T15:46:28.686Z,7.73
2022-11-29T15:48:56.039Z,7.73
2022-11-29T15:51:22.634Z,7.75
2022-11-29T15:54:13.308Z,7.75
2022-11-29T15:57:05.299Z,7.73
2022-11-29T15:59:55.024Z,7.77
2022-11-29T16:02:25.354Z,7.70
2022-11-29T16:04:56.055Z,7.67
2022-11-29T16:07:25.971Z,7.74
2022-11-29T16:09:59.351Z,7.74
2022-11-29T16:12:26.634Z,7.70
2022-11-29T16:14:58.007Z,7.68
2022-11-29T16:17:33.905Z,7.71
2022-11-29T16:20:16.808Z,7.72
2022-11-29T16:22:43.449Z,7.77
2022-11-29T16:25:19.111Z,7.77
2022-11-29T16:27:46.542Z,7.74
2022-11-29T16:30:27.741Z,7.70
2022-11-29T16:32:58.454Z,7.68
2022-11-29T16:35:28.655Z,7.76
2022-11-29T16:37:56.107Z,7.69
2022-11-29T16:40:31.378Z,7.73
2022-11-29T16:43:04.014Z,7.76
2022-11-29T16:45:35.417Z,7.79
2022-11-29T16:48:03.195Z,7.78
2022-11-29T16:50:31.515Z,7.73
2022-11-29T16:53:35.360Z,7.92
2022-11-29T16:56:02.633Z,7.77
2022-11-29T16:58:29.417Z,7.80
2022-11-29T17:00:56.216Z,7.75
2022-11-29T17:03:22.911Z,7.79
2022-11-29T17:05:50.298Z,7.73
2022-11-29T17:08:17.079Z,7.91
2022-11-29T17:10:43.706Z,7.78
2022-11-29T17:13:13.265Z,7.72
2022-11-29T17:15:39.892Z,7.71
2022-11-29T17:18:06.554Z,7.65
2022-11-29T17:20:34.002Z,7.68
2022-11-29T17:23:00.689Z,7.73
2022-11-29T17:25:27.338Z,7.73
2022-11-29T17:27:54.001Z,7.70
2022-11-29T17:30:20.701Z,7.77
2022-11-29T17:32:47.310Z,7.69
2022-11-29T17:35:13.975Z,7.73
2022-11-29T17:37:40.582Z,7.71
2022-11-29T17:40:08.073Z,7.68
2022-11-29T17:42:34.676Z,7.59
2022-11-29T17:45:01.387Z,7.59
2022-11-29T17:47:28.124Z,7.59
2022-11-29T17:49:54.822Z,7.56
2022-11-29T17:52:21.548Z,7.48
2022-11-29T17:54:48.156Z,7.49
2022-11-29T17:57:14.955Z,7.56
2022-11-29T17:59:41.569Z,7.44
2022-11-29T18:02:14.165Z,7.64
2022-11-29T18:04:42.781Z,7.56
2022-11-29T18:09:41.361Z,7.56
2022-11-29T18:12:08.121Z,7.61
2022-11-29T18:14:36.459Z,7.55
2022-11-29T18:17:03.176Z,7.47
2022-11-29T18:19:31.490Z,7.77
2022-11-29T18:21:58.301Z,7.67
2022-11-29T18:24:24.998Z,7.72
2022-11-29T18:26:51.618Z,7.66
2022-11-29T18:29:18.301Z,7.74
2022-11-29T18:31:46.283Z,7.62
2022-11-29T18:34:14.263Z,7.70
2022-11-29T18:36:43.572Z,7.64
2022-11-29T18:39:19.002Z,7.67
2022-11-29T18:41:50.150Z,7.62
2022-11-29T18:44:19.745Z,7.73
2022-11-29T18:46:46.924Z,7.64
2022-11-29T18:49:15.805Z,7.65
2022-11-29T18:51:45.027Z,7.70
2022-11-29T18:54:12.926Z,7.52
2022-11-29T18:56:39.758Z,7.47
2022-11-29T18:59:11.558Z,7.53
2022-11-29T19:01:43.157Z,7.50
2022-11-29T19:04:12.361Z,7.50
2022-11-29T19:06:40.293Z,7.47
2022-11-29T19:09:09.890Z,7.41
2022-11-29T19:11:36.620Z,7.30
2022-11-29T19:14:06.092Z,7.36
2022-11-29T19:16:34.550Z,7.45
2022-11-29T19:19:02.165Z,7.40
2022-11-29T19:21:32.042Z,7.45
2022-11-29T19:24:07.721Z,7.56
2022-11-29T19:26:34.712Z,7.45
2022-11-29T19:29:01.651Z,7.50
2022-11-29T19:31:28.891Z,9.14
2022-11-29T19:33:56.770Z,9.73
2022-11-29T19:36:25.910Z,10.31
2022-11-29T19:38:54.098Z,10.47
2022-11-29T19:41:35.108Z,9.69
2022-11-29T19:44:05.312Z,8.85
2022-11-29T19:46:40.306Z,8.56
2022-11-29T19:49:08.727Z,8.04
2022-11-29T19:51:36.379Z,7.88
2022-11-29T19:54:05.282Z,7.67
2022-11-29T19:56:33.071Z,7.67
2022-11-29T19:59:00.123Z,7.59
2022-11-29T20:01:40.107Z,7.77
2022-11-29T20:04:09.104Z,7.70
2022-11-29T20:06:35.826Z,7.66
2022-11-29T20:09:03.230Z,7.69
2022-11-29T20:11:29.952Z,7.73
2022-11-29T20:13:59.383Z,7.61
2022-11-29T20:16:27.539Z,7.49
2022-11-29T20:18:54.643Z,7.53
2022-11-29T20:21:26.318Z,7.59
2022-11-29T20:24:01.946Z,7.47
2022-11-29T20:26:30.658Z,7.48
2022-11-29T20:28:57.554Z,7.48
2022-11-29T20:31:24.259Z,7.52
2022-11-29T20:33:52.920Z,7.67
2022-11-29T20:36:40.931Z,7.62
2022-11-29T20:39:32.192Z,7.36
2022-11-29T20:41:58.778Z,7.40
2022-11-29T20:44:39.620Z,7.30
2022-11-29T20:47:21.148Z,7.39
2022-11-29T20:49:48.333Z,7.48
2022-11-29T20:52:39.502Z,7.44
2022-11-29T20:55:06.539Z,7.32
2022-11-29T20:57:33.240Z,7.29
2022-11-29T21:00:00.169Z,7.26
2022-11-29T21:02:26.802Z,7.19
2022-11-29T21:04:53.496Z,7.26
2022-11-29T21:07:20.285Z,7.32
2022-11-29T21:09:47.001Z,7.37
2022-11-29T21:12:14.126Z,7.51
2022-11-29T21:14:40.990Z,7.53
2022-11-29T21:17:08.630Z,7.46
2022-11-29T21:19:35.870Z,7.57
2022-11-29T21:22:14.428Z,7.53
2022-11-29T21:25:14.218Z,7.47
2022-11-29T21:27:41.384Z,7.51
2022-11-29T21:30:17.963Z,7.50
2022-11-29T21:32:45.097Z,7.36
2022-11-29T21:37:44.311Z,7.34
2022-11-29T21:40:12.295Z,7.20
2022-11-29T21:42:39.082Z,7.20
2022-11-29T21:45:09.298Z,7.07
2022-11-29T21:47:41.594Z,7.08
2022-11-29T21:50:08.892Z,7.14
2022-11-29T21:52:35.650Z,7.39
2022-11-29T21:55:02.368Z,7.23
2022-11-29T21:57:28.998Z,7.27
2022-11-29T21:59:55.682Z,7.31
2022-11-29T22:02:22.381Z,7.36
2022-11-29T22:04:49.335Z,7.41
2022-11-29T22:07:16.207Z,7.47
2022-11-29T22:09:42.857Z,7.40
2022-11-29T22:12:31.884Z,7.30
2022-11-29T22:14:56.041Z,7.22
2022-11-29T22:17:22.735Z,7.24
2022-11-29T22:19:49.449Z,7.35
2022-11-29T22:22:16.166Z,7.44
2022-11-29T22:24:42.790Z,7.48
2022-11-29T22:27:09.435Z,7.45
2022-11-29T22:29:36.004Z,7.51
2022-11-29T22:32:02.775Z,7.62
2022-11-29T22:34:29.434Z,7.56
2022-11-29T22:36:56.582Z,7.45
2022-11-29T22:39:24.270Z,7.56
2022-11-29T22:41:54.685Z,7.50
2022-11-29T22:44:22.168Z,7.50
2022-11-29T22:46:48.985Z,7.53
2022-11-29T22:49:15.640Z,7.50
2022-11-29T22:51:42.397Z,7.51
2022-11-29T22:54:20.428Z,7.48
2022-11-29T22:56:47.252Z,7.50
2022-11-29T22:59:14.399Z,7.53
2022-11-29T23:01:42.055Z,7.51
2022-11-29T23:04:10.349Z,7.40
2022-11-29T23:06:42.107Z,7.36
2022-11-29T23:09:16.034Z,7.32
2022-11-29T23:11:44.490Z,7.26
2022-11-29T23:14:11.287Z,7.24
2022-11-29T23:16:38.163Z,7.35
2022-11-29T23:19:04.992Z,7.17
2022-11-29T23:21:35.155Z,7.18
2022-11-29T23:24:02.167Z,7.13
2022-11-29T23:26:32.028Z,7.16
2022-11-29T23:28:58.755Z,7.13
2022-11-29T23:31:25.717Z,7.11
2022-11-29T23:33:52.420Z,7.17
2022-11-29T23:36:19.567Z,7.25
2022-11-29T23:38:46.787Z,7.18
2022-11-29T23:41:13.769Z,7.13
2022-11-29T23:43:41.615Z,7.10
2022-11-29T23:46:10.722Z,7.10
2022-11-29T23:48:37.424Z,7.18
2022-11-29T23:51:04.236Z,7.15
2022-11-29T23:53:31.375Z,7.05
2022-11-29T23:56:03.284Z,7.09
2022-11-29T23:58:31.272Z,7.05
